Time;durP1;ratioP1;P1;durP2;ratioP2;P2;SDS_P1;SDS_P2;PMS_P1;PMS_P2;Temp;Humidity;BMP_temperature;BMP_pressure;BME280_temperature;BME280_humidity;BME280_pressure;Samples;Min_cycle;Max_cycle;Signal;HPM_P1;HPM_P2
2019/09/16 00:00:17;;;;;;;3.8;3.5;;;;;;;;;;;;;
2019/09/16 00:02:38;;;;;;;6.6;4.1;;;;;;;;;;;;;
2019/09/16 00:05:08;;;;;;;5.8;3.7;;;;;;;;;;;;;
2019/09/16 00:07:29;;;;;;;6.6;3.4;;;;;;;;;;;;;
2019/09/16 00:09:56;;;;;;;6.6;3.6;;;;;;;;;;;;;
2019/09/16 00:12:24;;;;;;;4.7;3.5;;;;;;;;;;;;;
2019/09/16 00:14:49;;;;;;;3.6;3.2;;;;;;;;;;;;;
2019/09/16 00:17:23;;;;;;;5.1;3.3;;;;;;;;;;;;;
2019/09/16 00:19:45;;;;;;;3.9;3.5;;;;;;;;;;;;;
2019/09/16 00:22:09;;;;;;;4;3.5;;;;;;;;;;;;;
2019/09/16 00:24:38;;;;;;;4.5;3.5;;;;;;;;;;;;;
2019/09/16 00:27:02;;;;;;;5.3;3.4;;;;;;;;;;;;;
2019/09/16 00:29:27;;;;;;;5.8;3.4;;;;;;;;;;;;;
2019/09/16 00:31:52;;;;;;;5.2;3.4;;;;;;;;;;;;;
2019/09/16 00:34:20;;;;;;;4.6;3.7;;;;;;;;;;;;;
2019/09/16 00:36:42;;;;;;;4.6;3.8;;;;;;;;;;;;;
2019/09/16 00:39:20;;;;;;;5.4;3.6;;;;;;;;;;;;;
2019/09/16 00:41:47;;;;;;;6.1;4;;;;;;;;;;;;;
2019/09/16 00:44:24;;;;;;;8.3;3.9;;;;;;;;;;;;;
2019/09/16 00:46:49;;;;;;;5.4;3.6;;;;;;;;;;;;;
2019/09/16 00:49:21;;;;;;;5.3;3.6;;;;;;;;;;;;;
2019/09/16 00:51:50;;;;;;;5.8;3.5;;;;;;;;;;;;;
2019/09/16 00:54:15;;;;;;;6.3;3.8;;;;;;;;;;;;;
2019/09/16 00:56:41;;;;;;;4.9;3.6;;;;;;;;;;;;;
2019/09/16 00:59:09;;;;;;;6.2;4.1;;;;;;;;;;;;;
2019/09/16 01:01:35;;;;;;;5.1;4.6;;;;;;;;;;;;;
2019/09/16 01:04:03;;;;;;;6.8;4.6;;;;;;;;;;;;;
2019/09/16 01:06:28;;;;;;;6.4;4.3;;;;;;;;;;;;;
2019/09/16 01:08:54;;;;;;;5.6;4;;;;;;;;;;;;;
2019/09/16 01:11:33;;;;;;;5;3.9;;;;;;;;;;;;;
2019/09/16 01:14:22;;;;;;;5.5;3.6;;;;;;;;;;;;;
2019/09/16 01:16:44;;;;;;;4.8;4.3;;;;;;;;;;;;;
2019/09/16 01:19:12;;;;;;;6.4;4;;;;;;;;;;;;;
2019/09/16 01:21:36;;;;;;;7.7;4.3;;;;;;;;;;;;;
2019/09/16 01:24:26;;;;;;;5.1;4.2;;;;;;;;;;;;;
2019/09/16 01:27:22;;;;;;;8.3;4.1;;;;;;;;;;;;;
2019/09/16 01:29:48;;;;;;;5.8;3.7;;;;;;;;;;;;;
2019/09/16 01:32:11;;;;;;;4.8;4;;;;;;;;;;;;;
2019/09/16 01:34:38;;;;;;;5.1;4.1;;;;;;;;;;;;;
2019/09/16 01:37:24;;;;;;;6;4.4;;;;;;;;;;;;;
2019/09/16 01:39:48;;;;;;;6.4;4.3;;;;;;;;;;;;;
2019/09/16 01:42:17;;;;;;;5.5;4.1;;;;;;;;;;;;;
2019/09/16 01:44:44;;;;;;;7.7;4.5;;;;;;;;;;;;;
2019/09/16 01:47:05;;;;;;;8.9;3.7;;;;;;;;;;;;;
2019/09/16 01:49:32;;;;;;;5.3;4;;;;;;;;;;;;;
2019/09/16 01:52:21;;;;;;;6.7;4.4;;;;;;;;;;;;;
2019/09/16 01:54:37;;;;;;;5.9;4.5;;;;;;;;;;;;;
2019/09/16 01:59:30;;;;;;;6.3;4;;;;;;;;;;;;;
2019/09/16 02:02:01;;;;;;;6.3;3.7;;;;;;;;;;;;;
2019/09/16 02:04:27;;;;;;;6.8;3.8;;;;;;;;;;;;;
2019/09/16 02:06:48;;;;;;;4.9;3.7;;;;;;;;;;;;;
2019/09/16 02:09:23;;;;;;;6.8;4.2;;;;;;;;;;;;;
2019/09/16 02:11:53;;;;;;;4.1;3.7;;;;;;;;;;;;;
2019/09/16 02:14:20;;;;;;;6.9;3.7;;;;;;;;;;;;;
2019/09/16 02:16:52;;;;;;;5.6;4.2;;;;;;;;;;;;;
2019/09/16 02:19:12;;;;;;;6.3;3.9;;;;;;;;;;;;;
2019/09/16 02:21:37;;;;;;;4.9;3.8;;;;;;;;;;;;;
2019/09/16 02:24:02;;;;;;;5.5;3.6;;;;;;;;;;;;;
2019/09/16 02:26:26;;;;;;;5.9;3.6;;;;;;;;;;;;;
2019/09/16 02:28:53;;;;;;;5.5;4;;;;;;;;;;;;;
2019/09/16 02:31:28;;;;;;;6.8;3.8;;;;;;;;;;;;;
2019/09/16 02:33:53;;;;;;;6.1;3.9;;;;;;;;;;;;;
2019/09/16 02:36:20;;;;;;;5.2;3.4;;;;;;;;;;;;;
2019/09/16 02:41:30;;;;;;;5.3;3.9;;;;;;;;;;;;;
2019/09/16 02:43:58;;;;;;;5.9;3.9;;;;;;;;;;;;;
2019/09/16 02:46:24;;;;;;;6.4;4;;;;;;;;;;;;;
2019/09/16 02:51:31;;;;;;;5.6;4.4;;;;;;;;;;;;;
2019/09/16 02:53:58;;;;;;;4.7;3.7;;;;;;;;;;;;;
2019/09/16 02:56:25;;;;;;;5.7;4.1;;;;;;;;;;;;;
2019/09/16 02:58:46;;;;;;;5.5;4.1;;;;;;;;;;;;;
2019/09/16 03:01:19;;;;;;;5.5;3.9;;;;;;;;;;;;;
2019/09/16 03:03:41;;;;;;;7.8;3.9;;;;;;;;;;;;;
2019/09/16 03:06:07;;;;;;;6.9;4;;;;;;;;;;;;;
2019/09/16 03:08:32;;;;;;;5.8;3.8;;;;;;;;;;;;;
2019/09/16 03:10:58;;;;;;;6;3.7;;;;;;;;;;;;;
2019/09/16 03:13:28;;;;;;;6.6;4.1;;;;;;;;;;;;;
2019/09/16 03:16:30;;;;;;;5.9;3.7;;;;;;;;;;;;;
2019/09/16 03:18:52;;;;;;;5.5;3.8;;;;;;;;;;;;;
2019/09/16 03:21:20;;;;;;;4.6;3.9;;;;;;;;;;;;;
2019/09/16 03:23:44;;;;;;;4.7;4;;;;;;;;;;;;;
2019/09/16 03:26:22;;;;;;;7.3;4.1;;;;;;;;;;;;;
2019/09/16 03:28:40;;;;;;;4.4;4;;;;;;;;;;;;;
2019/09/16 03:31:06;;;;;;;6.5;4.2;;;;;;;;;;;;;
2019/09/16 03:33:36;;;;;;;5.9;4.1;;;;;;;;;;;;;
2019/09/16 03:35:59;;;;;;;4.6;3.9;;;;;;;;;;;;;
2019/09/16 03:38:27;;;;;;;5.2;3.9;;;;;;;;;;;;;
2019/09/16 03:40:54;;;;;;;7.7;4.1;;;;;;;;;;;;;
2019/09/16 03:43:28;;;;;;;5.4;3.7;;;;;;;;;;;;;
2019/09/16 03:45:52;;;;;;;6.6;3.9;;;;;;;;;;;;;
2019/09/16 03:48:18;;;;;;;7.4;4.9;;;;;;;;;;;;;
2019/09/16 03:50:48;;;;;;;11.7;5.7;;;;;;;;;;;;;
2019/09/16 03:53:13;;;;;;;6.8;4.8;;;;;;;;;;;;;
2019/09/16 03:55:42;;;;;;;6.6;4.9;;;;;;;;;;;;;
2019/09/16 03:58:07;;;;;;;7.1;4.6;;;;;;;;;;;;;
2019/09/16 04:02:32;;;;;;;6;4.3;;;;;;;14.85;88.51563;943.2332;;;;
2019/09/16 04:04:57;;;;;;;5.6;4.3;;;;;;;14.85;87.98535;943.2845;;;;
2019/09/16 04:07:28;;;;;;;8.9;5;;;;;;;14.97;87.31738;943.2333;;;;
2019/09/16 04:10:52;;;;;;;7.3;4.8;;;;;;;15.14;86.17578;943.2224;;;;
2019/09/16 04:13:20;;;;;;;9.8;5.2;;;;;;;15.16;85.88965;943.2255;;;;
2019/09/16 04:15:49;;;;;;;7.8;5;;;;;;;15.23;85.37109;943.1295;;;;
2019/09/16 04:18:15;;;;;;;7.2;4.8;;;;;;;;;;;;;
2019/09/16 04:20:49;;;;;;;6.9;4.6;;;;;;;;;;;;;
2019/09/16 04:23:16;;;;;;;7;4.5;;;;;;;;;;;;;
2019/09/16 04:25:39;;;;;;;6.5;4.5;;;;;;;;;;;;;
2019/09/16 04:28:09;;;;;;;6.4;4.6;;;;;;;;;;;;;
2019/09/16 04:30:33;;;;;;;7.5;4.8;;;;;;;;;;;;;
2019/09/16 04:32:57;;;;;;;6.2;4.5;;;;;;;;;;;;;
2019/09/16 04:35:22;;;;;;;8.8;4.7;;;;;;;;;;;;;
2019/09/16 04:38:15;;;;;;;6.3;4.5;;;;;;;;;;;;;
2019/09/16 04:40:35;;;;;;;8.1;4.5;;;;;;;;;;;;;
2019/09/16 04:42:59;;;;;;;10.4;6.2;;;;;;;;;;;;;
2019/09/16 04:45:28;;;;;;;11.2;8.7;;;;;;;;;;;;;
2019/09/16 04:48:01;;;;;;;16.7;8.1;;;;;;;;;;;;;
2019/09/16 04:50:16;;;;;;;13.7;7.6;;;;;;;;;;;;;
2019/09/16 04:52:42;;;;;;;12.5;8.2;;;;;;;;;;;;;
2019/09/16 04:55:11;;;;;;;11.6;7.9;;;;;;;;;;;;;
2019/09/16 04:57:34;;;;;;;8.1;6.4;;;;;;;;;;;;;
2019/09/16 04:59:58;;;;;;;6.2;4.9;;;;;;;;;;;;;
2019/09/16 05:02:32;;;;;;;6;4.7;;;;;;;;;;;;;
2019/09/16 05:04:53;;;;;;;6.6;5;;;;;;;;;;;;;
2019/09/16 05:07:15;;;;;;;9.1;4.2;;;;;;;;;;;;;
2019/09/16 05:09:39;;;;;;;5.1;4;;;;;;;;;;;;;
2019/09/16 05:12:04;;;;;;;7.9;4.3;;;;;;;;;;;;;
2019/09/16 05:14:32;;;;;;;4.3;3.9;;;;;;;;;;;;;
2019/09/16 05:17:09;;;;;;;5.4;4.4;;;;;;;;;;;;;
2019/09/16 05:19:31;;;;;;;6.6;4.8;;;;;;;;;;;;;
2019/09/16 05:21:55;;;;;;;7.7;4.8;;;;;;;;;;;;;
2019/09/16 05:24:24;;;;;;;5.3;4.6;;;;;;;;;;;;;
2019/09/16 05:26:46;;;;;;;9.9;4.9;;;;;;;;;;;;;
2019/09/16 05:29:13;;;;;;;7.1;6;;;;;;;;;;;;;
2019/09/16 05:31:38;;;;;;;10.6;5.9;;;;;;;;;;;;;
2019/09/16 05:34:07;;;;;;;7.6;5.2;;;;;;;;;;;;;
2019/09/16 05:36:32;;;;;;;8.5;5.6;;;;;;;;;;;;;
2019/09/16 05:39:09;;;;;;;6.5;4.8;;;;;;;;;;;;;
2019/09/16 05:41:24;;;;;;;10.7;4.5;;;;;;;;;;;;;
2019/09/16 05:43:48;;;;;;;8;4.3;;;;;;;;;;;;;
2019/09/16 05:46:13;;;;;;;8.3;4.5;;;;;;;;;;;;;
2019/09/16 05:48:41;;;;;;;8.6;4.3;;;;;;;;;;;;;
2019/09/16 05:51:06;;;;;;;10.6;4.5;;;;;;;;;;;;;
2019/09/16 05:53:29;;;;;;;19.3;5.1;;;;;;;;;;;;;
2019/09/16 05:55:54;;;;;;;13.1;4.5;;;;;;;;;;;;;
2019/09/16 05:58:26;;;;;;;9.6;4.3;;;;;;;;;;;;;
2019/09/16 06:00:51;;;;;;;11.9;4.3;;;;;;;;;;;;;
2019/09/16 06:03:19;;;;;;;7.3;3.9;;;;;;;;;;;;;
2019/09/16 06:08:28;;;;;;;5;3.6;;;;;;;;;;;;;
2019/09/16 06:10:37;;;;;;;11.5;3.2;;;;;;;;;;;;;
2019/09/16 06:13:01;;;;;;;5.5;3.4;;;;;;;;;;;;;
2019/09/16 06:15:27;;;;;;;6.5;3.8;;;;;;;;;;;;;
2019/09/16 06:17:57;;;;;;;6.5;3.9;;;;;;;;;;;;;
2019/09/16 06:20:21;;;;;;;5.1;3.2;;;;;;;;;;;;;
2019/09/16 06:22:50;;;;;;;5.4;3.2;;;;;;;;;;;;;
2019/09/16 06:25:17;;;;;;;8.7;3.1;;;;;;;;;;;;;
2019/09/16 06:27:41;;;;;;;6.4;3.2;;;;;;;;;;;;;
2019/09/16 06:30:06;;;;;;;4.7;3.4;;;;;;;;;;;;;
2019/09/16 06:35:12;;;;;;;8.4;3.3;;;;;;;;;;;;;
2019/09/16 06:40:13;;;;;;;6.1;3.3;;;;;;;;;;;;;
2019/09/16 06:42:39;;;;;;;6.6;3.4;;;;;;;;;;;;;
2019/09/16 06:45:01;;;;;;;5.4;3;;;;;;;;;;;;;
2019/09/16 06:47:36;;;;;;;7;3.3;;;;;;;;;;;;;
2019/09/16 06:50:02;;;;;;;4.7;3.1;;;;;;;;;;;;;
2019/09/16 06:52:19;;;;;;;6.2;2.9;;;;;;;;;;;;;
2019/09/16 06:54:44;;;;;;;4.7;2.4;;;;;;;;;;;;;
2019/09/16 06:57:11;;;;;;;6.1;3.1;;;;;;;;;;;;;
2019/09/16 06:59:39;;;;;;;5.8;3.4;;;;;;;;;;;;;
2019/09/16 07:02:08;;;;;;;3.9;2.7;;;;;;;;;;;;;
2019/09/16 07:07:25;;;;;;;5.5;2.2;;;;;;;;;;;;;
2019/09/16 07:09:49;;;;;;;3.6;2.5;;;;;;;;;;;;;
2019/09/16 07:12:20;;;;;;;5.7;2.5;;;;;;;;;;;;;
2019/09/16 07:14:43;;;;;;;5.1;2.2;;;;;;;;;;;;;
2019/09/16 07:17:08;;;;;;;3.1;2;;;;;;;;;;;;;
2019/09/16 07:19:37;;;;;;;4.7;2.1;;;;;;;;;;;;;
2019/09/16 07:22:11;;;;;;;4.3;2;;;;;;;;;;;;;
2019/09/16 07:24:36;;;;;;;4.4;2.2;;;;;;;;;;;;;
2019/09/16 07:27:03;;;;;;;2.6;2;;;;;;;;;;;;;
2019/09/16 07:29:29;;;;;;;3.4;1.8;;;;;;;;;;;;;
2019/09/16 07:31:56;;;;;;;2.9;1.9;;;;;;;;;;;;;
2019/09/16 07:34:18;;;;;;;4.3;1.9;;;;;;;;;;;;;
2019/09/16 07:36:43;;;;;;;2.4;1.6;;;;;;;;;;;;;
2019/09/16 07:39:10;;;;;;;5.5;1.6;;;;;;;;;;;;;
2019/09/16 07:41:38;;;;;;;4.2;1.6;;;;;;;;;;;;;
2019/09/16 07:43:58;;;;;;;2.5;1.6;;;;;;;;;;;;;
2019/09/16 07:46:23;;;;;;;5.4;1.6;;;;;;;;;;;;;
2019/09/16 07:49:15;;;;;;;3.5;1.5;;;;;;;;;;;;;
2019/09/16 07:51:40;;;;;;;4.1;1.5;;;;;;;;;;;;;
2019/09/16 07:54:12;;;;;;;2;1.5;;;;;;;;;;;;;
2019/09/16 07:56:37;;;;;;;5.3;1.6;;;;;;;;;;;;;
2019/09/16 07:59:04;;;;;;;3;1.6;;;;;;;;;;;;;
2019/09/16 08:01:35;;;;;;;4.4;1.6;;;;;;;;;;;;;
2019/09/16 08:04:02;;;;;;;3.1;1.5;;;;;;;;;;;;;
2019/09/16 08:07:14;;;;;;;3.5;1.4;;;;;;;;;;;;;
2019/09/16 08:09:16;;;;;;;3.9;1.6;;;;;;;;;;;;;
2019/09/16 08:11:44;;;;;;;2.2;1.4;;;;;;;;;;;;;
2019/09/16 08:14:17;;;;;;;2.9;1.7;;;;;;;;;;;;;
2019/09/16 08:16:39;;;;;;;3.6;1.5;;;;;;;;;;;;;
2019/09/16 08:19:11;;;;;;;2.5;1.3;;;;;;;;;;;;;
2019/09/16 08:21:35;;;;;;;3.1;1.5;;;;;;;;;;;;;
2019/09/16 08:24:03;;;;;;;2.4;1.5;;;;;;;;;;;;;
2019/09/16 08:26:30;;;;;;;2.5;1.4;;;;;;;;;;;;;
2019/09/16 08:28:59;;;;;;;2.2;1.3;;;;;;;;;;;;;
2019/09/16 08:31:30;;;;;;;3.5;1.4;;;;;;;;;;;;;
2019/09/16 08:34:15;;;;;;;4.9;1.5;;;;;;;;;;;;;
2019/09/16 08:36:45;;;;;;;2.8;1.4;;;;;;;;;;;;;
2019/09/16 08:39:06;;;;;;;2.8;1.4;;;;;;;;;;;;;
2019/09/16 08:41:27;;;;;;;2.7;1.3;;;;;;;;;;;;;
2019/09/16 08:43:58;;;;;;;2.7;1.3;;;;;;;;;;;;;
2019/09/16 08:46:21;;;;;;;1.7;1.4;;;;;;;;;;;;;
2019/09/16 08:48:46;;;;;;;3.1;1.3;;;;;;;;;;;;;
2019/09/16 08:51:08;;;;;;;2.8;1.5;;;;;;;;;;;;;
2019/09/16 08:53:34;;;;;;;3.3;1.4;;;;;;;;;;;;;
2019/09/16 08:55:59;;;;;;;2.5;1.3;;;;;;;;;;;;;
2019/09/16 08:58:24;;;;;;;3.1;1.3;;;;;;;;;;;;;
2019/09/16 09:00:50;;;;;;;4.1;1.5;;;;;;;;;;;;;
2019/09/16 09:03:15;;;;;;;2.4;1.4;;;;;;;;;;;;;
2019/09/16 09:05:43;;;;;;;4.7;1.6;;;;;;;;;;;;;
2019/09/16 09:08:08;;;;;;;2.4;1.5;;;;;;;;;;;;;
2019/09/16 09:10:31;;;;;;;2.1;1.3;;;;;;;;;;;;;
2019/09/16 09:13:00;;;;;;;4.4;1.6;;;;;;;;;;;;;
2019/09/16 09:15:26;;;;;;;3.7;1.6;;;;;;;;;;;;;
2019/09/16 09:17:47;;;;;;;6.6;1.5;;;;;;;;;;;;;
2019/09/16 09:20:19;;;;;;;2.3;1.6;;;;;;;;;;;;;
2019/09/16 09:22:41;;;;;;;2.5;1.5;;;;;;;;;;;;;
2019/09/16 09:25:13;;;;;;;1.6;1.3;;;;;;;;;;;;;
2019/09/16 09:27:36;;;;;;;3.4;1.5;;;;;;;;;;;;;
2019/09/16 09:30:07;;;;;;;2.4;1.6;;;;;;;;;;;;;
2019/09/16 09:32:34;;;;;;;2.8;1.4;;;;;;;;;;;;;
2019/09/16 09:34:59;;;;;;;5.1;1.8;;;;;;;;;;;;;
2019/09/16 09:37:27;;;;;;;2.7;1.8;;;;;;;;;;;;;
2019/09/16 09:39:50;;;;;;;2.2;1.5;;;;;;;;;;;;;
2019/09/16 09:42:13;;;;;;;3;1.5;;;;;;;;;;;;;
2019/09/16 09:44:40;;;;;;;4.6;1.7;;;;;;;;;;;;;
2019/09/16 09:47:05;;;;;;;6.8;1.7;;;;;;;;;;;;;
2019/09/16 09:49:33;;;;;;;4.4;1.6;;;;;;;;;;;;;
2019/09/16 09:51:57;;;;;;;5.3;1.6;;;;;;;;;;;;;
2019/09/16 09:54:20;;;;;;;46.6;12.9;;;;;;;;;;;;;
2019/09/16 09:56:50;;;;;;;7.7;2.4;;;;;;;;;;;;;
2019/09/16 09:59:15;;;;;;;2.8;1.6;;;;;;;;;;;;;
2019/09/16 10:01:44;;;;;;;4.6;1.8;;;;;;;;;;;;;
2019/09/16 10:04:10;;;;;;;3.2;1.9;;;;;;;;;;;;;
2019/09/16 10:06:32;;;;;;;3.7;1.7;;;;;;;;;;;;;
2019/09/16 10:08:57;;;;;;;10;3.4;;;;;;;;;;;;;
2019/09/16 10:11:27;;;;;;;4.7;1.5;;;;;;;;;;;;;
2019/09/16 10:13:57;;;;;;;2.1;1.5;;;;;;;;;;;;;
2019/09/16 10:16:25;;;;;;;8;2.6;;;;;;;;;;;;;
2019/09/16 10:18:49;;;;;;;4.4;2.1;;;;;;;;;;;;;
2019/09/16 10:21:18;;;;;;;2.2;1.4;;;;;;;;;;;;;
2019/09/16 10:23:42;;;;;;;6;3;;;;;;;;;;;;;
2019/09/16 10:26:04;;;;;;;4;2.1;;;;;;;;;;;;;
2019/09/16 10:28:30;;;;;;;6.1;3;;;;;;;;;;;;;
2019/09/16 10:30:59;;;;;;;24.7;10.9;;;;;;;;;;;;;
2019/09/16 10:33:22;;;;;;;11.5;5.5;;;;;;;;;;;;;
2019/09/16 10:35:47;;;;;;;8;3;;;;;;;;;;;;;
2019/09/16 10:38:11;;;;;;;5.5;2.6;;;;;;;;;;;;;
2019/09/16 10:40:41;;;;;;;3;1.3;;;;;;;;;;;;;
2019/09/16 10:43:07;;;;;;;3.4;1.9;;;;;;;;;;;;;
2019/09/16 10:45:35;;;;;;;4;1.7;;;;;;;;;;;;;
2019/09/16 10:48:01;;;;;;;2.3;1.5;;;;;;;;;;;;;
2019/09/16 10:50:29;;;;;;;3.2;1.4;;;;;;;;;;;;;
2019/09/16 10:52:53;;;;;;;2.7;1.6;;;;;;;;;;;;;
2019/09/16 10:55:17;;;;;;;4;1.8;;;;;;;;;;;;;
2019/09/16 10:57:41;;;;;;;3.3;1.3;;;;;;;;;;;;;
2019/09/16 11:00:06;;;;;;;6;1.7;;;;;;;;;;;;;
2019/09/16 11:02:33;;;;;;;5.7;1.5;;;;;;;;;;;;;
2019/09/16 11:04:58;;;;;;;3.6;1.5;;;;;;;;;;;;;
2019/09/16 11:07:23;;;;;;;4.8;1.5;;;;;;;;;;;;;
2019/09/16 11:09:51;;;;;;;4.6;1.3;;;;;;;;;;;;;
2019/09/16 11:12:15;;;;;;;2.3;1.5;;;;;;;;;;;;;
2019/09/16 11:14:40;;;;;;;2.1;1.3;;;;;;;;;;;;;
2019/09/16 11:17:07;;;;;;;2.6;1.5;;;;;;;;;;;;;
2019/09/16 11:19:32;;;;;;;2.3;1.3;;;;;;;;;;;;;
2019/09/16 11:21:54;;;;;;;2.3;1.2;;;;;;;;;;;;;
2019/09/16 11:24:21;;;;;;;2.6;1.1;;;;;;;;;;;;;
2019/09/16 11:26:44;;;;;;;2.4;1.2;;;;;;;;;;;;;
2019/09/16 11:29:11;;;;;;;2.3;1.3;;;;;;;;;;;;;
2019/09/16 11:31:43;;;;;;;5.6;1.5;;;;;;;;;;;;;
2019/09/16 11:34:08;;;;;;;4.3;1.4;;;;;;;;;;;;;
2019/09/16 11:36:32;;;;;;;1.8;1.4;;;;;;;;;;;;;
2019/09/16 11:38:57;;;;;;;3.2;1.4;;;;;;;;;;;;;
2019/09/16 11:41:22;;;;;;;2.6;1.3;;;;;;;;;;;;;
2019/09/16 11:43:50;;;;;;;2.3;1.3;;;;;;;;;;;;;
2019/09/16 11:46:26;;;;;;;4.6;1.5;;;;;;;;;;;;;
2019/09/16 11:48:38;;;;;;;3.5;1.4;;;;;;;;;;;;;
2019/09/16 11:51:02;;;;;;;3.6;1.5;;;;;;;;;;;;;
2019/09/16 11:53:31;;;;;;;4.3;1.4;;;;;;;;;;;;;
2019/09/16 11:55:54;;;;;;;3.8;1.2;;;;;;;;;;;;;
2019/09/16 11:58:19;;;;;;;3.5;1.4;;;;;;;;;;;;;
2019/09/16 12:01:06;;;;;;;2;1.3;;;;;;;;;;;;;
2019/09/16 12:03:11;;;;;;;5.3;1.6;;;;;;;;;;;;;
2019/09/16 12:05:35;;;;;;;3.6;1.5;;;;;;;;;;;;;
2019/09/16 12:07:59;;;;;;;2.2;1.2;;;;;;;;;;;;;
2019/09/16 12:10:23;;;;;;;2.7;1.3;;;;;;;;;;;;;
2019/09/16 12:12:51;;;;;;;2.1;1.3;;;;;;;;;;;;;
2019/09/16 12:15:18;;;;;;;5;1.4;;;;;;;;;;;;;
2019/09/16 12:17:42;;;;;;;3.6;1.4;;;;;;;;;;;;;
2019/09/16 12:20:12;;;;;;;4.4;1.3;;;;;;;;;;;;;
2019/09/16 12:22:41;;;;;;;2.5;1.3;;;;;;;;;;;;;
2019/09/16 12:25:09;;;;;;;4.1;1.4;;;;;;;;;;;;;
2019/09/16 12:27:29;;;;;;;3.8;1.4;;;;;;;;;;;;;
2019/09/16 12:29:55;;;;;;;1.6;1.2;;;;;;;;;;;;;
2019/09/16 12:32:22;;;;;;;2.8;1.4;;;;;;;;;;;;;
2019/09/16 12:34:46;;;;;;;2.2;1.3;;;;;;;;;;;;;
2019/09/16 12:37:12;;;;;;;2.2;1.4;;;;;;;;;;;;;
2019/09/16 12:39:42;;;;;;;5.1;1.3;;;;;;;;;;;;;
2019/09/16 12:42:05;;;;;;;3.7;1.5;;;;;;;;;;;;;
2019/09/16 12:44:28;;;;;;;2.8;1.2;;;;;;;;;;;;;
2019/09/16 12:47:19;;;;;;;3.8;1.5;;;;;;;;;;;;;
2019/09/16 12:49:26;;;;;;;4.4;1.4;;;;;;;;;;;;;
2019/09/16 12:51:46;;;;;;;6.8;1.4;;;;;;;;;;;;;
2019/09/16 12:54:10;;;;;;;3.6;1.5;;;;;;;;;;;;;
2019/09/16 12:56:40;;;;;;;3.3;1.3;;;;;;;;;;;;;
2019/09/16 12:59:01;;;;;;;2.7;1.4;;;;;;;;;;;;;
2019/09/16 13:01:26;;;;;;;3.5;1.4;;;;;;;;;;;;;
2019/09/16 13:03:56;;;;;;;3.9;1.5;;;;;;;;;;;;;
2019/09/16 13:06:22;;;;;;;4.6;1.4;;;;;;;;;;;;;
2019/09/16 13:08:48;;;;;;;4.1;1.4;;;;;;;;;;;;;
2019/09/16 13:11:11;;;;;;;2.6;1.4;;;;;;;;;;;;;
2019/09/16 13:13:41;;;;;;;2.5;1.5;;;;;;;;;;;;;
2019/09/16 13:16:04;;;;;;;4.1;1.6;;;;;;;;;;;;;
2019/09/16 13:18:35;;;;;;;4.7;1.7;;;;;;;;;;;;;
2019/09/16 13:21:01;;;;;;;4.1;1.5;;;;;;;;;;;;;
2019/09/16 13:23:27;;;;;;;2.8;1.4;;;;;;;;;;;;;
2019/09/16 13:25:54;;;;;;;4.9;1.6;;;;;;;;;;;;;
2019/09/16 13:28:16;;;;;;;2.9;1.4;;;;;;;;;;;;;
2019/09/16 13:30:45;;;;;;;2.5;1.4;;;;;;;;;;;;;
2019/09/16 13:33:10;;;;;;;3.2;1.3;;;;;;;;;;;;;
2019/09/16 13:35:35;;;;;;;3.8;1.4;;;;;;;;;;;;;
2019/09/16 13:37:58;;;;;;;4;1.4;;;;;;;;;;;;;
2019/09/16 13:40:31;;;;;;;5.9;1.8;;;;;;;;;;;;;
2019/09/16 13:43:05;;;;;;;4.9;1.8;;;;;;;;;;;;;
2019/09/16 13:45:33;;;;;;;2.9;1.4;;;;;;;;;;;;;
2019/09/16 13:47:56;;;;;;;3;1.5;;;;;;;;;;;;;
2019/09/16 13:50:24;;;;;;;4;1.5;;;;;;;;;;;;;
2019/09/16 13:53:03;;;;;;;2.8;1.4;;;;;;;;;;;;;
2019/09/16 13:55:17;;;;;;;3.5;1.3;;;;;;;;;;;;;
2019/09/16 13:57:42;;;;;;;4.8;1.8;;;;;;;;;;;;;
2019/09/16 14:00:13;;;;;;;3.4;1.4;;;;;;;;;;;;;
2019/09/16 14:02:35;;;;;;;4.5;1.4;;;;;;;;;;;;;
2019/09/16 14:05:17;;;;;;;5.8;1.5;;;;;;;;;;;;;
2019/09/16 14:07:49;;;;;;;6.4;1.4;;;;;;;;;;;;;
2019/09/16 14:10:14;;;;;;;8.5;1.5;;;;;;;;;;;;;
2019/09/16 14:12:38;;;;;;;3.3;1.3;;;;;;;;;;;;;
2019/09/16 14:15:09;;;;;;;3.6;1.4;;;;;;;;;;;;;
2019/09/16 14:17:31;;;;;;;5.4;1.5;;;;;;;;;;;;;
2019/09/16 14:19:56;;;;;;;5.8;1.6;;;;;;;;;;;;;
2019/09/16 14:22:20;;;;;;;3.6;1.5;;;;;;;;;;;;;
2019/09/16 14:24:46;;;;;;;9.1;1.6;;;;;;;;;;;;;
2019/09/16 14:27:15;;;;;;;3.6;1.4;;;;;;;;;;;;;
2019/09/16 14:29:41;;;;;;;3.7;1.5;;;;;;;;;;;;;
2019/09/16 14:32:07;;;;;;;3.9;1.4;;;;;;;;;;;;;
2019/09/16 14:35:36;;;;;;;7.3;1.6;;;;;;;;;;;;;
2019/09/16 14:37:25;;;;;;;4.8;1.5;;;;;;;;;;;;;
2019/09/16 14:39:50;;;;;;;7.6;1.5;;;;;;;;;;;;;
2019/09/16 14:42:22;;;;;;;9.1;1.5;;;;;;;;;;;;;
2019/09/16 14:44:44;;;;;;;5.4;1.4;;;;;;;;;;;;;
2019/09/16 14:47:08;;;;;;;5.1;1.4;;;;;;;;;;;;;
2019/09/16 14:49:32;;;;;;;6.9;1.4;;;;;;;;;;;;;
2019/09/16 14:51:58;;;;;;;5.5;1.5;;;;;;;;;;;;;
2019/09/16 14:54:24;;;;;;;2.7;1.2;;;;;;;;;;;;;
2019/09/16 14:58:00;;;;;;;5.6;1.5;;;;;;;;;;;;;
2019/09/16 15:00:29;;;;;;;4.8;1.4;;;;;;;;;;;;;
2019/09/16 15:02:56;;;;;;;3.9;1.5;;;;;;;;;;;;;
2019/09/16 15:05:17;;;;;;;3.4;1.3;;;;;;;;;;;;;
2019/09/16 15:07:42;;;;;;;4.4;1.4;;;;;;;;;;;;;
2019/09/16 15:10:14;;;;;;;3;1.3;;;;;;;;;;;;;
2019/09/16 15:12:37;;;;;;;3.5;1.3;;;;;;;;;;;;;
2019/09/16 15:15:04;;;;;;;4.3;1.3;;;;;;;;;;;;;
2019/09/16 15:17:31;;;;;;;4;1.4;;;;;;;;;;;;;
2019/09/16 15:20:19;;;;;;;4.2;1.7;;;;;;;;;;;;;
2019/09/16 15:22:38;;;;;;;4.3;1.4;;;;;;;;;;;;;
2019/09/16 15:25:18;;;;;;;4.3;1.5;;;;;;;;;;;;;
2019/09/16 15:27:44;;;;;;;5.4;1.8;;;;;;;;;;;;;
2019/09/16 15:30:05;;;;;;;57.4;20.9;;;;;;;;;;;;;
2019/09/16 15:32:32;;;;;;;49.5;17.1;;;;;;;;;;;;;
2019/09/16 15:35:00;;;;;;;13;5.4;;;;;;;;;;;;;
2019/09/16 15:37:24;;;;;;;16.8;6.8;;;;;;;;;;;;;
2019/09/16 15:39:48;;;;;;;30.1;12.3;;;;;;;;;;;;;
2019/09/16 15:42:21;;;;;;;30.8;9.6;;;;;;;;;;;;;
2019/09/16 15:44:54;;;;;;;5.9;1.6;;;;;;;;;;;;;
2019/09/16 15:47:17;;;;;;;6.9;1.4;;;;;;;;;;;;;
2019/09/16 15:49:41;;;;;;;22.6;7.4;;;;;;;;;;;;;
2019/09/16 15:52:12;;;;;;;10.8;3.8;;;;;;;;;;;;;
2019/09/16 15:54:43;;;;;;;14.6;5.2;;;;;;;;;;;;;
2019/09/16 15:57:06;;;;;;;11.3;3.6;;;;;;;;;;;;;
2019/09/16 15:59:29;;;;;;;21.4;7.7;;;;;;;;;;;;;
2019/09/16 16:01:54;;;;;;;10.5;4.1;;;;;;;;;;;;;
2019/09/16 16:04:22;;;;;;;9.6;3.4;;;;;;;;;;;;;
2019/09/16 16:06:48;;;;;;;6.3;1.7;;;;;;;;;;;;;
2019/09/16 16:09:12;;;;;;;4.8;1.6;;;;;;;;;;;;;
2019/09/16 16:11:40;;;;;;;3.1;1.3;;;;;;;;;;;;;
2019/09/16 16:14:04;;;;;;;4.9;1.5;;;;;;;;;;;;;
2019/09/16 16:16:33;;;;;;;7.5;1.8;;;;;;;;;;;;;
2019/09/16 16:18:58;;;;;;;4;1.7;;;;;;;;;;;;;
2019/09/16 16:21:23;;;;;;;6.1;1.6;;;;;;;;;;;;;
2019/09/16 16:23:49;;;;;;;6.9;1.7;;;;;;;;;;;;;
2019/09/16 16:26:16;;;;;;;6.6;1.8;;;;;;;;;;;;;
2019/09/16 16:28:39;;;;;;;4.1;1.6;;;;;;;;;;;;;
2019/09/16 16:31:15;;;;;;;5.5;1.7;;;;;;;;;;;;;
2019/09/16 16:33:44;;;;;;;4.3;1.5;;;;;;;;;;;;;
2019/09/16 16:36:01;;;;;;;3.8;1.7;;;;;;;;;;;;;
2019/09/16 16:38:32;;;;;;;5.5;1.7;;;;;;;;;;;;;
2019/09/16 16:41:02;;;;;;;6.4;2;;;;;;;;;;;;;
2019/09/16 16:43:29;;;;;;;6.6;1.6;;;;;;;;;;;;;
2019/09/16 16:45:50;;;;;;;4.7;1.5;;;;;;;;;;;;;
2019/09/16 16:48:32;;;;;;;3.9;1.6;;;;;;;;;;;;;
2019/09/16 16:50:47;;;;;;;3.4;1.5;;;;;;;;;;;;;
2019/09/16 16:53:12;;;;;;;6.2;1.8;;;;;;;;;;;;;
2019/09/16 16:55:44;;;;;;;5;1.9;;;;;;;;;;;;;
2019/09/16 16:58:07;;;;;;;4.6;1.7;;;;;;;;;;;;;
2019/09/16 17:00:31;;;;;;;5.3;2.2;;;;;;;;;;;;;
2019/09/16 17:03:00;;;;;;;5;2;;;;;;;;;;;;;
2019/09/16 17:05:23;;;;;;;3.9;1.6;;;;;;;;;;;;;
2019/09/16 17:07:47;;;;;;;4.1;1.7;;;;;;;;;;;;;
2019/09/16 17:10:14;;;;;;;6.7;1.9;;;;;;;;;;;;;
2019/09/16 17:12:44;;;;;;;7.7;2.1;;;;;;;;;;;;;
2019/09/16 17:15:11;;;;;;;6.6;2.3;;;;;;;;;;;;;
2019/09/16 17:17:41;;;;;;;7;2.4;;;;;;;;;;;;;
2019/09/16 17:20:02;;;;;;;4.4;2;;;;;;;;;;;;;
2019/09/16 17:22:44;;;;;;;5.9;2;;;;;;;;;;;;;
2019/09/16 17:24:55;;;;;;;4.7;2;;;;;;;;;;;;;
2019/09/16 17:27:24;;;;;;;4.6;2.1;;;;;;;;;;;;;
2019/09/16 17:29:47;;;;;;;7.4;2.2;;;;;;;;;;;;;
2019/09/16 17:32:10;;;;;;;4.3;1.9;;;;;;;;;;;;;
2019/09/16 17:34:35;;;;;;;6.1;2.4;;;;;;;;;;;;;
2019/09/16 17:36:58;;;;;;;6.7;2.1;;;;;;;;;;;;;
2019/09/16 17:39:24;;;;;;;7.6;2.2;;;;;;;;;;;;;
2019/09/16 17:41:49;;;;;;;4.6;2;;;;;;;;;;;;;
2019/09/16 17:44:21;;;;;;;6.6;2;;;;;;;;;;;;;
2019/09/16 17:46:45;;;;;;;6.2;2.1;;;;;;;;;;;;;
2019/09/16 17:49:23;;;;;;;5.8;2.5;;;;;;;;;;;;;
2019/09/16 17:51:38;;;;;;;7.6;1.8;;;;;;;;;;;;;
2019/09/16 17:54:01;;;;;;;7.1;1.8;;;;;;;;;;;;;
2019/09/16 17:56:29;;;;;;;6.4;2.5;;;;;;;;;;;;;
2019/09/16 17:58:54;;;;;;;9.5;2.5;;;;;;;;;;;;;
2019/09/16 18:01:18;;;;;;;6.9;2.3;;;;;;;;;;;;;
2019/09/16 18:03:45;;;;;;;6.3;2.2;;;;;;;;;;;;;
2019/09/16 18:06:11;;;;;;;9.3;3;;;;;;;;;;;;;
2019/09/16 18:08:39;;;;;;;8;2.5;;;;;;;;;;;;;
2019/09/16 18:11:08;;;;;;;11.7;2.8;;;;;;;;;;;;;
2019/09/16 18:13:28;;;;;;;9.8;2.8;;;;;;;;;;;;;
2019/09/16 18:15:54;;;;;;;5.7;2.6;;;;;;;;;;;;;
2019/09/16 18:18:21;;;;;;;6.2;2.7;;;;;;;;;;;;;
2019/09/16 18:20:47;;;;;;;5.4;2.4;;;;;;;;;;;;;
2019/09/16 18:23:11;;;;;;;7.5;2.3;;;;;;;;;;;;;
2019/09/16 18:25:40;;;;;;;8.5;2.3;;;;;;;;;;;;;
2019/09/16 18:28:12;;;;;;;7.7;2.5;;;;;;;;;;;;;
2019/09/16 18:30:32;;;;;;;7.7;2.4;;;;;;;;;;;;;
2019/09/16 18:32:58;;;;;;;8.8;2.2;;;;;;;;;;;;;
2019/09/16 18:35:22;;;;;;;11.5;3;;;;;;;;;;;;;
2019/09/16 18:37:56;;;;;;;6.6;2.5;;;;;;;;;;;;;
2019/09/16 18:40:23;;;;;;;5.5;2.4;;;;;;;;;;;;;
2019/09/16 18:42:49;;;;;;;8.7;2.7;;;;;;;;;;;;;
2019/09/16 18:45:12;;;;;;;9.2;2.5;;;;;;;;;;;;;
2019/09/16 18:47:40;;;;;;;6.6;2.4;;;;;;;;;;;;;
2019/09/16 18:50:05;;;;;;;11.6;2.6;;;;;;;;;;;;;
2019/09/16 18:52:28;;;;;;;10.2;2.6;;;;;;;;;;;;;
2019/09/16 18:54:52;;;;;;;11.3;2.7;;;;;;;;;;;;;
2019/09/16 18:57:17;;;;;;;8;2.8;;;;;;;;;;;;;
2019/09/16 18:59:50;;;;;;;6.4;2.7;;;;;;;;;;;;;
2019/09/16 19:02:08;;;;;;;8.7;2.7;;;;;;;;;;;;;
2019/09/16 19:04:33;;;;;;;6.8;2.9;;;;;;;;;;;;;
2019/09/16 19:06:58;;;;;;;7.9;2.9;;;;;;;;;;;;;
2019/09/16 19:09:27;;;;;;;6.6;2.7;;;;;;;;;;;;;
2019/09/16 19:11:54;;;;;;;5.9;2.6;;;;;;;;;;;;;
2019/09/16 19:14:20;;;;;;;5.6;2.6;;;;;;;;;;;;;
2019/09/16 19:16:49;;;;;;;9;2.7;;;;;;;;;;;;;
2019/09/16 19:19:21;;;;;;;6.4;2.4;;;;;;;;;;;;;
2019/09/16 19:21:42;;;;;;;6.5;2.3;;;;;;;;;;;;;
2019/09/16 19:24:06;;;;;;;7.9;2.7;;;;;;;;;;;;;
2019/09/16 19:26:30;;;;;;;9;2.6;;;;;;;;;;;;;
2019/09/16 19:29:03;;;;;;;7.7;2.5;;;;;;;;;;;;;
2019/09/16 19:31:26;;;;;;;7;2.6;;;;;;;;;;;;;
2019/09/16 19:33:54;;;;;;;7.6;3.2;;;;;;;;;;;;;
2019/09/16 19:36:21;;;;;;;6.1;2.3;;;;;;;;;;;;;
2019/09/16 19:38:46;;;;;;;7;2.6;;;;;;;;;;;;;
2019/09/16 19:41:09;;;;;;;7.5;2.6;;;;;;;;;;;;;
2019/09/16 19:43:36;;;;;;;7.8;2.7;;;;;;;;;;;;;
2019/09/16 19:46:00;;;;;;;7;2.9;;;;;;;;;;;;;
2019/09/16 19:48:24;;;;;;;7.9;2.9;;;;;;;;;;;;;
2019/09/16 19:50:54;;;;;;;4.6;2.6;;;;;;;;;;;;;
2019/09/16 19:53:17;;;;;;;7.2;3;;;;;;;;;;;;;
2019/09/16 19:55:43;;;;;;;7.1;2.8;;;;;;;;;;;;;
2019/09/16 19:58:11;;;;;;;8;2.6;;;;;;;;;;;;;
2019/09/16 20:00:33;;;;;;;6.4;2.7;;;;;;;;;;;;;
2019/09/16 20:03:05;;;;;;;5.6;2.8;;;;;;;;;;;;;
2019/09/16 20:05:23;;;;;;;7.5;2.9;;;;;;;;;;;;;
2019/09/16 20:07:54;;;;;;;12.2;2.8;;;;;;;;;;;;;
2019/09/16 20:12:51;;;;;;;7;2.4;;;;;;;;;;;;;
2019/09/16 20:15:25;;;;;;;6.5;2.8;;;;;;;;;;;;;
2019/09/16 20:17:50;;;;;;;7.8;2.7;;;;;;;;;;;;;
2019/09/16 20:20:19;;;;;;;8.3;2.9;;;;;;;;;;;;;
2019/09/16 20:22:43;;;;;;;7.3;2.7;;;;;;;;;;;;;
2019/09/16 20:25:10;;;;;;;10.6;3;;;;;;;;;;;;;
2019/09/16 20:27:38;;;;;;;7.8;3;;;;;;;;;;;;;
2019/09/16 20:30:04;;;;;;;10.7;3.1;;;;;;;;;;;;;
2019/09/16 20:32:26;;;;;;;8.9;2.6;;;;;;;;;;;;;
2019/09/16 20:34:54;;;;;;;7.8;2.8;;;;;;;;;;;;;
2019/09/16 20:37:21;;;;;;;9.5;3.1;;;;;;;;;;;;;
2019/09/16 20:39:46;;;;;;;9.6;2.8;;;;;;;;;;;;;
2019/09/16 20:42:16;;;;;;;8.9;2.7;;;;;;;;;;;;;
2019/09/16 20:44:41;;;;;;;8.4;3;;;;;;;;;;;;;
2019/09/16 20:47:17;;;;;;;8.1;2.8;;;;;;;;;;;;;
2019/09/16 20:49:32;;;;;;;7.1;2.6;;;;;;;;;;;;;
2019/09/16 20:51:55;;;;;;;8.4;2.9;;;;;;;;;;;;;
2019/09/16 20:54:20;;;;;;;8.4;2.7;;;;;;;;;;;;;
2019/09/16 20:56:47;;;;;;;8;2.9;;;;;;;;;;;;;
2019/09/16 20:59:28;;;;;;;7.3;2.6;;;;;;;;;;;;;